Time;durP1;ratioP1;P1;durP2;ratioP2;P2;SDS_P1;SDS_P2;PMS_P1;PMS_P2;Temp;Humidity;BMP_temperature;BMP_pressure;BME280_temperature;BME280_humidity;BME280_pressure;Samples;Min_cycle;Max_cycle;Signal;HPM_P1;HPM_P2
2021/12/18 00:01:11;;;;;;;9.98;5.47;;;4.40;99.90;;;;;;5013528;28;20497;-87
2021/12/18 00:03:36;;;;;;;11.60;4.45;;;4.30;99.90;;;;;;5024866;28;20550;-87
2021/12/18 00:06:03;;;;;;;10.23;5.05;;;4.30;99.90;;;;;;5018108;28;20028;-87
2021/12/18 00:08:28;;;;;;;11.43;6.07;;;4.30;99.90;;;;;;5049738;28;20028;-87
2021/12/18 00:10:55;;;;;;;10.05;5.15;;;4.20;99.90;;;;;;5004917;28;20032;-87
2021/12/18 00:13:22;;;;;;;9.32;5.57;;;4.20;99.90;;;;;;5021451;28;20040;-87
2021/12/18 00:15:48;;;;;;;9.80;5.13;;;4.10;99.90;;;;;;5012808;28;20494;-87
2021/12/18 00:18:14;;;;;;;11.43;4.93;;;4.20;99.90;;;;;;5032425;28;20037;-87
2021/12/18 00:20:39;;;;;;;10.52;4.82;;;4.10;99.90;;;;;;5011177;28;20021;-87
2021/12/18 00:23:06;;;;;;;12.13;5.25;;;4.10;99.90;;;;;;5016913;28;20025;-87
2021/12/18 00:25:32;;;;;;;13.57;5.38;;;4.20;99.90;;;;;;5041411;28;20051;-87
2021/12/18 00:27:58;;;;;;;10.85;5.18;;;4.20;99.90;;;;;;5014788;28;20025;-87
2021/12/18 00:30:23;;;;;;;12.07;5.30;;;4.20;99.90;;;;;;5016708;28;20482;-87
2021/12/18 00:32:49;;;;;;;7.95;4.55;;;4.20;99.90;;;;;;5037230;28;20025;-87
2021/12/18 00:35:15;;;;;;;10.07;4.88;;;4.30;99.90;;;;;;5015060;28;20041;-87
2021/12/18 00:37:41;;;;;;;13.20;5.63;;;4.30;99.90;;;;;;4998629;28;20032;-87
2021/12/18 00:40:16;;;;;;;9.85;4.80;;;4.30;99.90;;;;;;5018180;28;20104;-87
2021/12/18 00:42:48;;;;;;;13.57;4.95;;;4.40;99.90;;;;;;5051289;28;20060;-87
2021/12/18 00:45:15;;;;;;;11.88;5.35;;;4.40;99.90;;;;;;5031161;28;20025;-87
2021/12/18 00:47:42;;;;;;;17.60;6.90;;;4.40;99.90;;;;;;5033693;28;20032;-86
2021/12/18 00:50:11;;;;;;;14.23;6.15;;;4.50;99.90;;;;;;5017114;28;20036;-87
2021/12/18 00:52:37;;;;;;;17.55;6.72;;;4.50;99.90;;;;;;5029767;28;20060;-87
2021/12/18 00:55:03;;;;;;;14.57;7.07;;;4.50;99.90;;;;;;5020315;28;20413;-87
2021/12/18 00:57:29;;;;;;;17.08;7.50;;;4.50;99.90;;;;;;5035285;28;20072;-87
2021/12/18 01:00:00;;;;;;;17.08;7.03;;;4.50;99.90;;;;;;5041211;28;20390;-87
2021/12/18 01:02:27;;;;;;;17.25;7.05;;;4.60;99.90;;;;;;5027423;28;20060;-87
2021/12/18 01:04:53;;;;;;;12.02;5.93;;;4.60;99.90;;;;;;5037495;28;20400;-88
2021/12/18 01:07:19;;;;;;;17.15;7.82;;;4.70;99.90;;;;;;5034519;28;20025;-87
2021/12/18 01:10:15;;;;;;;24.30;9.07;;;4.70;99.90;;;;;;5003605;28;20140;-87
2021/12/18 01:12:44;;;;;;;17.75;7.80;;;4.80;99.90;;;;;;5017341;28;20032;-87
2021/12/18 01:15:28;;;;;;;19.40;8.43;;;4.80;99.90;;;;;;5018859;28;20036;-87
2021/12/18 01:23:25;;;;;;;18.85;8.45;;;4.90;99.90;;;;;;5038200;28;20039;-87
2021/12/18 01:25:53;;;;;;;19.80;8.07;;;4.90;99.90;;;;;;5018220;28;20033;-87
2021/12/18 01:28:19;;;;;;;21.88;8.50;;;4.90;99.90;;;;;;5014352;28;20048;-87
2021/12/18 01:30:44;;;;;;;22.05;9.00;;;4.90;99.90;;;;;;5041616;28;20036;-87
2021/12/18 01:33:10;;;;;;;24.48;9.70;;;5.00;99.90;;;;;;5037645;28;20037;-87
2021/12/18 01:35:36;;;;;;;21.35;9.02;;;5.00;99.90;;;;;;5034311;28;20040;-87
2021/12/18 01:38:02;;;;;;;20.88;9.25;;;5.00;99.90;;;;;;5017740;28;20497;-87
2021/12/18 01:40:28;;;;;;;18.58;9.02;;;5.00;99.90;;;;;;5001386;28;20048;-87
2021/12/18 01:46:00;;;;;;;19.23;8.88;;;5.10;99.90;;;;;;5031923;28;20116;-87
2021/12/18 01:53:42;;;;;;;17.35;8.85;;;5.10;99.90;;;;;;5031103;28;20032;-87
2021/12/18 01:56:08;;;;;;;21.17;9.27;;;5.10;99.90;;;;;;5024542;28;20037;-87
2021/12/18 01:58:35;;;;;;;24.67;8.95;;;5.10;99.90;;;;;;5024224;28;20461;-87
2021/12/18 02:01:03;;;;;;;22.05;9.88;;;5.10;99.90;;;;;;5039722;28;20431;-87
2021/12/18 02:03:29;;;;;;;16.80;8.30;;;5.10;99.90;;;;;;5030125;28;20036;-87
2021/12/18 02:05:55;;;;;;;18.13;8.32;;;5.10;99.90;;;;;;5024598;28;20025;-88
2021/12/18 02:08:24;;;;;;;13.63;7.25;;;5.10;99.90;;;;;;5000415;28;20116;-87
2021/12/18 02:11:35;;;;;;;14.20;7.30;;;5.10;99.90;;;;;;5044497;23;20067;-88
2021/12/18 02:21:44;;;;;;;20.45;7.03;;;5.10;99.90;;;;;;5040862;28;20063;-88
2021/12/18 02:24:10;;;;;;;14.95;6.85;;;5.00;99.90;;;;;;5020634;28;20036;-88
2021/12/18 02:26:35;;;;;;;17.17;7.35;;;5.00;99.90;;;;;;5012466;28;20075;-88
2021/12/18 02:29:03;;;;;;;14.40;6.97;;;5.00;99.90;;;;;;5013848;28;20033;-88
2021/12/18 02:31:30;;;;;;;15.90;6.68;;;5.00;99.90;;;;;;5032173;28;20017;-89
2021/12/18 02:33:56;;;;;;;16.60;8.00;;;5.00;99.90;;;;;;5053150;28;20086;-88
2021/12/18 02:36:24;;;;;;;17.38;8.10;;;5.00;99.90;;;;;;5021922;28;20111;-88
2021/12/18 02:41:37;;;;;;;21.85;9.43;;;4.90;99.90;;;;;;5042242;28;20102;-88
2021/12/18 02:44:06;;;;;;;19.33;9.20;;;4.90;99.90;;;;;;5070959;28;20087;-88
2021/12/18 02:46:32;;;;;;;21.98;9.23;;;4.90;99.90;;;;;;5043434;28;20024;-87
2021/12/18 02:49:03;;;;;;;20.90;8.90;;;4.90;99.90;;;;;;5053270;28;20024;-89
2021/12/18 02:51:29;;;;;;;20.02;9.48;;;4.90;99.90;;;;;;5026714;28;20029;-88
2021/12/18 02:53:55;;;;;;;25.77;9.02;;;4.90;99.90;;;;;;5014679;28;20036;-87
2021/12/18 02:56:23;;;;;;;25.20;9.18;;;4.90;99.90;;;;;;5029376;28;20041;-88
2021/12/18 02:58:58;;;;;;;28.17;11.23;;;4.90;99.90;;;;;;5029495;28;20105;-88
2021/12/18 03:01:26;;;;;;;28.67;10.43;;;4.90;99.90;;;;;;5017007;28;20116;-89
2021/12/18 03:03:53;;;;;;;28.25;11.13;;;4.90;99.90;;;;;;5024854;28;20155;-87
2021/12/18 03:06:32;;;;;;;27.08;11.27;;;4.80;99.90;;;;;;5051460;28;20028;-89
2021/12/18 03:25:11;;;;;;;29.80;11.25;;;4.80;99.90;;;;;;5021212;28;20039;-89
2021/12/18 03:27:37;;;;;;;34.17;12.67;;;4.80;99.90;;;;;;4997358;28;20148;-88
2021/12/18 03:30:05;;;;;;;29.45;12.32;;;4.70;99.90;;;;;;5045688;28;20529;-90
2021/12/18 03:32:30;;;;;;;26.08;10.70;;;4.70;99.90;;;;;;5004790;28;20124;-88
2021/12/18 03:34:56;;;;;;;28.42;11.32;;;4.60;99.90;;;;;;5043871;28;20108;-88
2021/12/18 03:37:21;;;;;;;25.67;11.52;;;4.60;99.90;;;;;;5026488;28;20033;-88
2021/12/18 03:39:48;;;;;;;24.35;10.80;;;4.60;99.90;;;;;;5012494;28;20037;-89
2021/12/18 03:42:17;;;;;;;24.80;9.57;;;4.60;99.90;;;;;;5034547;28;20112;-88
2021/12/18 03:44:43;;;;;;;27.50;11.25;;;4.60;99.90;;;;;;5045202;28;20033;-88
2021/12/18 03:47:09;;;;;;;24.30;10.25;;;4.60;99.90;;;;;;5037009;28;20654;-88
2021/12/18 03:49:35;;;;;;;27.40;11.32;;;4.60;99.90;;;;;;5060844;28;20035;-88
2021/12/18 03:52:01;;;;;;;26.50;10.60;;;4.60;99.90;;;;;;5050192;28;20036;-89
2021/12/18 03:54:27;;;;;;;30.05;12.27;;;4.60;99.90;;;;;;5028844;28;20064;-90
2021/12/18 03:56:53;;;;;;;27.42;11.23;;;4.60;99.90;;;;;;5041927;28;20033;-88
2021/12/18 03:59:19;;;;;;;29.15;11.43;;;4.50;99.90;;;;;;5035289;28;20082;-88
2021/12/18 04:01:45;;;;;;;25.10;11.05;;;4.40;99.90;;;;;;5050251;28;20044;-88
2021/12/18 04:04:11;;;;;;;24.02;11.35;;;4.40;99.90;;;;;;5051866;28;20115;-88
2021/12/18 04:06:39;;;;;;;29.45;10.57;;;4.40;99.90;;;;;;5051460;28;20116;-89
2021/12/18 04:09:06;;;;;;;24.00;10.82;;;4.40;99.90;;;;;;5035241;28;20025;-88
2021/12/18 04:11:32;;;;;;;25.90;10.75;;;4.40;99.90;;;;;;5025894;28;20030;-88
2021/12/18 04:13:58;;;;;;;22.35;10.77;;;4.40;99.90;;;;;;5064377;28;20032;-88
2021/12/18 04:16:24;;;;;;;31.63;11.85;;;4.50;99.90;;;;;;5024131;28;20041;-88
2021/12/18 04:18:50;;;;;;;28.65;11.30;;;4.50;99.90;;;;;;5052078;28;20166;-88
2021/12/18 04:21:15;;;;;;;25.30;11.30;;;4.40;99.90;;;;;;5027716;28;20032;-88
2021/12/18 04:23:41;;;;;;;28.05;12.45;;;4.40;99.90;;;;;;5018656;28;20032;-88
2021/12/18 04:26:07;;;;;;;24.67;10.60;;;4.40;99.90;;;;;;5042212;28;20106;-88
2021/12/18 04:28:32;;;;;;;26.60;11.75;;;4.40;99.90;;;;;;5053591;28;20035;-88
2021/12/18 04:30:58;;;;;;;28.13;12.30;;;4.40;99.90;;;;;;5013139;28;20025;-88
2021/12/18 04:33:24;;;;;;;26.60;11.57;;;4.50;99.90;;;;;;5016046;28;20029;-88
2021/12/18 04:35:50;;;;;;;30.90;11.93;;;4.50;99.90;;;;;;5026084;28;20037;-88
2021/12/18 04:38:16;;;;;;;26.60;12.82;;;4.50;99.90;;;;;;5055560;28;20020;-88
2021/12/18 04:40:43;;;;;;;29.63;12.77;;;4.50;99.90;;;;;;5035209;28;20059;-88
2021/12/18 04:43:09;;;;;;;26.10;12.15;;;4.50;99.90;;;;;;5044836;28;20028;-88
2021/12/18 04:45:35;;;;;;;31.55;13.00;;;4.50;99.90;;;;;;5037135;28;20132;-88
2021/12/18 04:48:00;;;;;;;35.10;14.07;;;4.50;99.90;;;;;;5037125;28;20408;-90
2021/12/18 04:50:26;;;;;;;27.45;12.20;;;4.40;99.90;;;;;;5052791;28;20029;-88
2021/12/18 04:52:52;;;;;;;28.45;11.38;;;4.40;99.90;;;;;;5049781;28;20097;-88
2021/12/18 04:55:19;;;;;;;34.60;12.65;;;4.40;99.90;;;;;;5055022;28;20240;-88
2021/12/18 04:57:45;;;;;;;33.97;12.43;;;4.40;99.90;;;;;;5044037;28;20028;-88
2021/12/18 05:00:14;;;;;;;36.15;13.35;;;4.40;99.90;;;;;;5038952;28;20123;-88
2021/12/18 05:02:43;;;;;;;35.13;14.67;;;4.40;99.90;;;;;;5056198;28;20056;-88
2021/12/18 05:05:14;;;;;;;41.40;15.52;;;4.30;99.90;;;;;;5034548;28;20420;-88
2021/12/18 05:07:41;;;;;;;39.35;14.02;;;4.30;99.90;;;;;;5052976;28;20024;-88
2021/12/18 05:10:08;;;;;;;37.90;15.13;;;4.30;99.90;;;;;;5026724;28;20119;-88
2021/12/18 05:12:34;;;;;;;40.38;16.00;;;4.30;99.90;;;;;;5042222;28;20028;-88
2021/12/18 05:15:00;;;;;;;36.38;15.05;;;4.30;99.90;;;;;;5054548;28;20029;-88
2021/12/18 05:17:26;;;;;;;37.38;14.70;;;4.30;99.90;;;;;;5022828;28;20533;-88
2021/12/18 05:19:52;;;;;;;39.42;16.08;;;4.30;99.90;;;;;;5048581;28;20063;-88
2021/12/18 05:22:18;;;;;;;41.13;15.15;;;4.30;99.90;;;;;;5043309;28;20047;-88
2021/12/18 05:24:43;;;;;;;40.58;15.23;;;4.30;99.90;;;;;;5037604;28;20100;-89
2021/12/18 05:27:09;;;;;;;34.47;13.90;;;4.30;99.90;;;;;;5033966;28;20029;-88
2021/12/18 05:29:34;;;;;;;39.63;14.43;;;4.30;99.90;;;;;;5038502;28;20043;-88
2021/12/18 05:32:00;;;;;;;43.30;14.50;;;4.20;99.90;;;;;;5026559;28;20030;-88
2021/12/18 05:34:33;;;;;;;37.22;14.25;;;4.20;99.90;;;;;;5019159;28;20048;-89
2021/12/18 05:39:26;;;;;;;36.92;13.95;;;4.10;99.90;;;;;;5071611;28;20040;-88
2021/12/18 05:41:52;;;;;;;35.70;13.48;;;4.10;99.90;;;;;;5051918;28;20036;-88
2021/12/18 05:44:20;;;;;;;36.22;13.40;;;4.00;99.90;;;;;;5049406;28;20036;-88
2021/12/18 05:46:46;;;;;;;43.22;14.95;;;4.00;99.90;;;;;;4985565;28;20120;-88
2021/12/18 05:49:13;;;;;;;42.65;15.18;;;3.90;99.90;;;;;;5061372;28;20056;-88
2021/12/18 05:51:39;;;;;;;42.10;16.73;;;3.90;99.90;;;;;;5066962;28;20028;-88
2021/12/18 05:54:05;;;;;;;47.22;15.80;;;3.80;99.90;;;;;;5054391;28;20036;-88
2021/12/18 05:56:32;;;;;;;50.33;16.27;;;3.80;99.90;;;;;;5038232;28;20615;-88
2021/12/18 05:58:59;;;;;;;43.08;15.43;;;3.70;99.90;;;;;;5017679;28;20029;-87
2021/12/18 06:01:25;;;;;;;45.35;15.93;;;3.70;99.90;;;;;;5033668;28;20114;-88
2021/12/18 06:03:50;;;;;;;51.03;15.02;;;3.80;99.90;;;;;;5027905;28;20036;-90
2021/12/18 06:06:16;;;;;;;40.85;13.57;;;3.70;99.90;;;;;;5034398;28;20035;-88
2021/12/18 06:08:42;;;;;;;42.05;14.55;;;3.60;99.90;;;;;;5030159;28;20030;-88
2021/12/18 06:11:13;;;;;;;43.38;14.98;;;3.60;99.90;;;;;;5030401;28;20033;-88
2021/12/18 06:13:41;;;;;;;41.00;13.35;;;3.60;99.90;;;;;;5040232;28;20032;-88
2021/12/18 06:16:07;;;;;;;44.33;13.80;;;3.60;99.90;;;;;;5071186;28;20040;-88
2021/12/18 06:18:34;;;;;;;38.75;13.73;;;3.60;99.90;;;;;;5026078;28;20472;-87
2021/12/18 06:21:00;;;;;;;38.78;13.38;;;3.50;99.90;;;;;;5064787;28;20504;-87
2021/12/18 06:23:26;;;;;;;36.60;13.45;;;3.50;99.90;;;;;;5013872;28;20068;-89
2021/12/18 06:25:51;;;;;;;32.58;12.15;;;3.50;99.90;;;;;;5029457;28;20089;-89
2021/12/18 06:28:17;;;;;;;38.88;12.85;;;3.50;99.90;;;;;;5036682;28;20115;-89
2021/12/18 06:30:43;;;;;;;38.10;14.15;;;3.50;99.90;;;;;;5020276;28;20040;-88
2021/12/18 06:33:08;;;;;;;35.45;13.07;;;3.40;99.90;;;;;;5020626;28;20493;-89
2021/12/18 06:35:34;;;;;;;40.80;12.80;;;3.40;99.90;;;;;;5052977;28;20035;-88
2021/12/18 06:38:00;;;;;;;29.27;11.27;;;3.40;99.90;;;;;;5036689;28;20032;-88
2021/12/18 06:40:25;;;;;;;38.22;13.35;;;3.40;99.90;;;;;;5036519;28;20036;-88
2021/12/18 06:42:51;;;;;;;38.10;12.00;;;3.40;99.90;;;;;;5023372;28;20562;-88
2021/12/18 06:45:17;;;;;;;38.50;12.52;;;3.30;99.90;;;;;;5013678;28;20021;-89
2021/12/18 06:47:42;;;;;;;27.00;11.30;;;3.30;99.90;;;;;;5037912;28;20043;-88
2021/12/18 06:50:10;;;;;;;36.58;13.05;;;3.30;99.90;;;;;;5012020;28;20101;-87
2021/12/18 06:52:35;;;;;;;34.90;12.90;;;3.30;99.90;;;;;;5024039;28;20314;-87
2021/12/18 06:55:02;;;;;;;31.73;12.38;;;3.30;99.90;;;;;;5031161;28;20110;-87
2021/12/18 06:57:28;;;;;;;34.72;11.80;;;3.30;99.90;;;;;;5018451;28;20032;-89
2021/12/18 06:59:53;;;;;;;33.65;12.07;;;3.30;99.90;;;;;;5016760;28;20029;-87
2021/12/18 07:02:19;;;;;;;37.25;11.45;;;3.40;99.90;;;;;;5019461;28;20063;-88
2021/12/18 07:04:45;;;;;;;35.70;13.23;;;3.40;99.90;;;;;;5020663;28;20037;-89
2021/12/18 07:07:10;;;;;;;32.90;12.02;;;3.50;99.90;;;;;;5012659;28;20025;-87
2021/12/18 07:09:36;;;;;;;41.65;13.15;;;3.40;99.90;;;;;;5009295;28;20780;-88
2021/12/18 07:12:02;;;;;;;31.98;11.85;;;3.40;99.90;;;;;;5038932;28;20030;-88
2021/12/18 07:14:27;;;;;;;31.35;13.27;;;3.40;99.90;;;;;;5009272;28;20651;-88
2021/12/18 07:16:53;;;;;;;38.33;14.20;;;3.40;99.90;;;;;;5031168;28;20037;-88
2021/12/18 07:19:19;;;;;;;34.28;12.68;;;3.50;99.90;;;;;;5033984;28;20055;-88
2021/12/18 07:21:44;;;;;;;37.70;13.13;;;3.50;99.90;;;;;;5015740;28;20795;-87
2021/12/18 07:24:10;;;;;;;38.40;12.93;;;3.50;99.90;;;;;;5034438;28;20066;-88
2021/12/18 07:26:36;;;;;;;33.47;12.88;;;3.40;99.90;;;;;;5004661;28;20029;-88
2021/12/18 07:29:01;;;;;;;34.40;13.18;;;3.40;99.90;;;;;;5008797;28;20100;-88
2021/12/18 07:31:27;;;;;;;30.73;12.73;;;3.40;99.90;;;;;;5041243;28;20021;-88
2021/12/18 07:33:53;;;;;;;38.47;14.90;;;3.50;99.90;;;;;;5036172;28;20083;-88
2021/12/18 07:36:19;;;;;;;35.13;13.18;;;3.40;99.90;;;;;;5012829;28;20029;-88
2021/12/18 07:38:45;;;;;;;32.70;12.13;;;3.40;99.90;;;;;;4996766;28;20039;-88
2021/12/18 07:41:11;;;;;;;33.50;12.80;;;3.40;99.90;;;;;;5010543;28;20029;-88
2021/12/18 07:43:37;;;;;;;34.47;13.10;;;3.40;99.90;;;;;;5032163;28;20060;-88
2021/12/18 07:46:03;;;;;;;33.65;13.00;;;3.40;99.90;;;;;;5041961;28;20048;-89
2021/12/18 07:48:29;;;;;;;45.67;15.88;;;3.50;99.90;;;;;;5008681;28;20029;-88
2021/12/18 07:50:55;;;;;;;42.33;15.88;;;3.50;99.90;;;;;;5008618;28;20381;-88
2021/12/18 07:53:23;;;;;;;47.95;16.60;;;3.50;99.90;;;;;;5051395;28;20031;-88
2021/12/18 07:55:49;;;;;;;37.88;15.18;;;3.50;99.90;;;;;;5012713;28;20033;-88
2021/12/18 07:58:15;;;;;;;33.10;13.70;;;3.50;99.90;;;;;;5015956;28;20390;-88
2021/12/18 08:00:40;;;;;;;36.38;12.70;;;3.50;99.90;;;;;;4998599;28;20034;-89
2021/12/18 08:03:06;;;;;;;30.50;11.98;;;3.50;99.90;;;;;;5011220;28;20044;-88
2021/12/18 08:05:32;;;;;;;27.02;10.90;;;3.50;99.90;;;;;;5013066;28;20120;-87
2021/12/18 08:07:57;;;;;;;28.77;10.63;;;3.50;99.90;;;;;;5029330;28;20115;-88
2021/12/18 08:10:23;;;;;;;33.17;11.80;;;3.60;99.90;;;;;;5027848;23;20043;-87
2021/12/18 08:12:49;;;;;;;27.33;11.45;;;3.60;99.90;;;;;;5064979;28;20067;-88
2021/12/18 08:15:14;;;;;;;36.15;13.85;;;3.60;99.90;;;;;;5031817;28;20033;-87
2021/12/18 08:17:40;;;;;;;31.00;11.63;;;3.60;99.90;;;;;;5055374;28;20435;-87
2021/12/18 08:20:07;;;;;;;28.45;12.18;;;3.60;99.90;;;;;;5049753;28;20488;-87
2021/12/18 08:22:33;;;;;;;28.85;11.85;;;3.60;99.90;;;;;;5039124;28;20119;-87
2021/12/18 08:25:01;;;;;;;28.20;11.48;;;3.60;99.90;;;;;;5063957;28;20016;-88
2021/12/18 08:27:27;;;;;;;25.35;10.88;;;3.60;99.90;;;;;;5033686;28;20036;-86
2021/12/18 08:29:53;;;;;;;31.88;13.10;;;3.60;99.90;;;;;;5043447;28;20031;-87
2021/12/18 08:32:18;;;;;;;32.10;13.07;;;3.50;99.90;;;;;;5036150;28;20037;-87
2021/12/18 08:34:44;;;;;;;31.88;12.65;;;3.50;99.90;;;;;;5044888;28;20047;-90
2021/12/18 08:37:10;;;;;;;27.23;11.57;;;3.40;99.90;;;;;;5064710;28;20036;-88
2021/12/18 08:39:35;;;;;;;27.77;10.10;;;3.50;99.90;;;;;;5050820;28;20294;-88
2021/12/18 08:42:04;;;;;;;32.00;13.20;;;3.50;99.90;;;;;;5051448;28;20120;-88
2021/12/18 08:44:30;;;;;;;31.42;11.43;;;3.50;99.90;;;;;;5060617;28;20024;-88
2021/12/18 08:46:56;;;;;;;28.10;11.45;;;3.40;99.90;;;;;;5030649;28;20269;-88
2021/12/18 08:49:23;;;;;;;36.45;12.20;;;3.40;99.90;;;;;;5031493;28;20027;-87
2021/12/18 08:51:48;;;;;;;33.75;12.75;;;3.40;99.90;;;;;;5014728;28;20048;-88
2021/12/18 08:54:17;;;;;;;28.00;11.90;;;3.50;99.90;;;;;;5065591;28;20037;-89
2021/12/18 08:56:43;;;;;;;25.95;10.95;;;3.40;99.90;;;;;;5034268;28;20333;-88
2021/12/18 08:59:08;;;;;;;25.38;11.07;;;3.40;99.90;;;;;;5018187;28;20085;-88
2021/12/18 09:01:34;;;;;;;32.47;11.27;;;3.40;99.90;;;;;;5033960;28;20043;-88
2021/12/18 09:04:00;;;;;;;28.40;10.90;;;3.40;99.90;;;;;;5083562;28;20553;-88
2021/12/18 09:06:26;;;;;;;23.15;9.98;;;3.30;99.90;;;;;;5054049;28;20630;-88
2021/12/18 09:08:52;;;;;;;26.30;10.88;;;3.30;99.90;;;;;;5041853;28;20039;-88
2021/12/18 09:11:19;;;;;;;29.33;12.35;;;3.30;99.90;;;;;;5032592;28;20103;-88
2021/12/18 09:13:45;;;;;;;28.40;11.05;;;3.40;99.90;;;;;;5042834;28;20040;-88
2021/12/18 09:16:10;;;;;;;26.52;9.52;;;3.40;99.90;;;;;;5053323;28;20029;-88
2021/12/18 09:18:36;;;;;;;31.98;10.93;;;3.40;99.90;;;;;;5061811;28;20661;-89
2021/12/18 09:21:02;;;;;;;33.50;11.48;;;3.40;99.90;;;;;;5048856;28;20062;-89
2021/12/18 09:23:28;;;;;;;29.58;10.68;;;3.30;99.90;;;;;;5061239;28;20028;-89
2021/12/18 09:25:53;;;;;;;25.02;9.48;;;3.40;99.90;;;;;;5049132;28;20044;-89
2021/12/18 09:28:19;;;;;;;23.50;9.65;;;3.40;99.90;;;;;;5038069;28;20293;-88
2021/12/18 09:30:45;;;;;;;25.63;9.65;;;3.40;99.90;;;;;;5037932;28;20029;-88
2021/12/18 09:33:13;;;;;;;32.15;10.05;;;3.50;99.90;;;;;;5038264;28;20123;-88
2021/12/18 09:35:40;;;;;;;22.25;9.82;;;3.50;99.90;;;;;;5055340;28;20032;-88
2021/12/18 09:38:05;;;;;;;28.52;9.68;;;3.50;99.90;;;;;;5072369;28;20058;-88
2021/12/18 09:40:31;;;;;;;23.20;8.70;;;3.50;99.90;;;;;;5092533;28;20032;-88
2021/12/18 09:43:00;;;;;;;29.02;9.32;;;3.60;99.90;;;;;;5056049;28;20119;-88
2021/12/18 09:45:26;;;;;;;23.45;9.35;;;3.60;99.90;;;;;;5092285;28;20059;-88
2021/12/18 09:47:52;;;;;;;29.50;10.00;;;3.60;99.90;;;;;;5062522;28;20028;-88
2021/12/18 09:50:20;;;;;;;24.52;9.95;;;3.60;99.90;;;;;;5054063;28;20108;-88
2021/12/18 09:52:46;;;;;;;38.42;12.77;;;3.60;99.90;;;;;;5054102;28;20071;-88
2021/12/18 09:55:13;;;;;;;23.45;9.30;;;3.60;99.90;;;;;;5037328;28;20028;-89
2021/12/18 09:57:39;;;;;;;28.83;9.88;;;3.60;99.90;;;;;;5021105;28;20050;-89
2021/12/18 10:00:08;;;;;;;24.67;8.90;;;3.60;99.90;;;;;;5054094;28;20031;-88
2021/12/18 10:02:34;;;;;;;24.75;8.52;;;3.70;99.90;;;;;;5037531;28;20028;-87
2021/12/18 10:04:59;;;;;;;27.60;9.35;;;3.70;99.90;;;;;;5036950;28;20033;-88
2021/12/18 10:07:27;;;;;;;28.45;10.75;;;3.80;99.90;;;;;;5037213;28;20037;-89
2021/12/18 10:09:57;;;;;;;28.45;9.70;;;3.70;99.90;;;;;;5037388;28;20032;-88
2021/12/18 10:12:29;;;;;;;29.58;10.00;;;3.70;99.90;;;;;;5037805;28;20493;-88
2021/12/18 10:15:03;;;;;;;26.40;9.35;;;3.70;99.90;;;;;;5053481;28;20047;-88
2021/12/18 10:17:41;;;;;;;22.80;9.95;;;3.70;99.90;;;;;;5053289;28;20488;-87
2021/12/18 10:20:09;;;;;;;26.27;10.38;;;3.70;99.90;;;;;;5021258;28;20039;-88
2021/12/18 10:22:51;;;;;;;23.90;10.00;;;3.70;99.90;;;;;;5053707;28;20089;-88
2021/12/18 10:25:30;;;;;;;22.67;8.85;;;3.70;99.90;;;;;;5053127;28;20028;-88
2021/12/18 10:28:10;;;;;;;26.25;9.85;;;3.60;99.90;;;;;;5053231;28;20032;-88
2021/12/18 10:30:41;;;;;;;26.50;9.40;;;3.70;99.90;;;;;;5038668;28;20033;-88
2021/12/18 10:33:11;;;;;;;26.10;9.27;;;3.70;99.90;;;;;;5053536;28;20028;-89
2021/12/18 10:35:38;;;;;;;25.40;8.07;;;3.70;99.90;;;;;;5036687;28;20028;-88
2021/12/18 10:38:04;;;;;;;18.42;8.15;;;3.70;99.90;;;;;;5053228;28;20289;-89
2021/12/18 10:40:49;;;;;;;24.27;9.40;;;3.80;99.90;;;;;;5036631;28;20028;-88
2021/12/18 10:43:15;;;;;;;27.02;8.85;;;3.80;99.90;;;;;;5053577;28;20045;-89
2021/12/18 10:45:41;;;;;;;21.15;8.63;;;3.80;99.90;;;;;;5052748;28;20473;-89
2021/12/18 10:48:12;;;;;;;23.25;9.13;;;3.80;99.90;;;;;;5036608;28;20024;-89
2021/12/18 10:50:43;;;;;;;;;;;3.80;99.90;;;;;;5052157;28;20048;-90
2021/12/18 10:53:18;;;;;;;25.85;8.07;;;3.80;99.90;;;;;;5049938;28;19966;-88
2021/12/18 10:55:53;;;;;;;24.23;9.55;;;3.70;99.90;;;;;;5053452;28;20020;-88
2021/12/18 10:58:30;;;;;;;21.15;7.95;;;3.70;99.90;;;;;;5070601;28;20047;-89
2021/12/18 11:00:59;;;;;;;24.30;8.55;;;3.70;99.90;;;;;;5052982;28;20149;-89
2021/12/18 11:03:35;;;;;;;25.27;8.43;;;3.60;99.90;;;;;;5036055;28;20040;-87
2021/12/18 11:06:20;;;;;;;27.80;9.63;;;3.60;99.90;;;;;;5052393;28;20508;-88
2021/12/18 11:09:04;;;;;;;25.35;9.57;;;3.70;99.90;;;;;;5052973;28;20500;-89
2021/12/18 11:14:08;;;;;;;30.83;10.10;;;3.70;99.90;;;;;;5070692;28;20028;-90
2021/12/18 11:16:37;;;;;;;29.20;10.15;;;3.70;99.90;;;;;;5051998;28;20089;-88
2021/12/18 11:19:13;;;;;;;22.42;9.05;;;3.70;99.90;;;;;;5036144;28;20124;-87
2021/12/18 11:21:42;;;;;;;27.58;9.73;;;3.70;99.90;;;;;;5052666;28;20558;-88
2021/12/18 11:24:10;;;;;;;24.00;8.15;;;3.70;99.90;;;;;;5052362;28;20024;-88
2021/12/18 11:26:50;;;;;;;22.90;8.43;;;3.80;99.90;;;;;;5035556;28;20046;-88
2021/12/18 11:29:22;;;;;;;30.50;11.15;;;3.80;99.90;;;;;;5052708;28;20572;-87
2021/12/18 11:31:49;;;;;;;35.70;11.05;;;3.80;99.90;;;;;;5036081;28;20094;-89
2021/12/18 11:34:16;;;;;;;28.65;10.48;;;3.90;99.90;;;;;;5035578;28;20024;-89
2021/12/18 11:36:44;;;;;;;33.70;11.55;;;3.90;99.90;;;;;;5051636;28;20530;-88
2021/12/18 11:39:12;;;;;;;33.25;11.10;;;3.90;99.90;;;;;;5035175;28;20035;-88
2021/12/18 11:41:39;;;;;;;36.33;11.05;;;3.80;99.90;;;;;;5035873;28;20169;-88
2021/12/18 11:44:33;;;;;;;30.98;11.93;;;3.80;99.90;;;;;;5035705;28;20036;-88
2021/12/18 11:47:24;;;;;;;36.15;10.90;;;3.80;99.90;;;;;;5032653;28;20120;-88
2021/12/18 11:49:50;;;;;;;35.13;11.07;;;3.80;99.90;;;;;;5036720;28;20028;-88
2021/12/18 11:52:16;;;;;;;39.65;12.25;;;3.80;99.90;;;;;;5034232;28;20029;-87
2021/12/18 11:54:58;;;;;;;30.58;10.90;;;3.90;99.90;;;;;;5035632;28;20090;-88
2021/12/18 11:57:50;;;;;;;36.17;12.40;;;3.90;99.90;;;;;;5035046;28;20032;-87
2021/12/18 12:00:15;;;;;;;29.23;11.88;;;3.80;99.90;;;;;;5060837;28;20497;-88
2021/12/18 12:02:46;;;;;;;35.60;12.32;;;3.90;99.90;;;;;;5052731;28;20083;-86
2021/12/18 12:05:14;;;;;;;51.67;13.43;;;3.90;99.90;;;;;;5051971;28;20082;-87
2021/12/18 12:07:42;;;;;;;39.17;14.95;;;3.80;99.90;;;;;;5040634;28;20032;-87
2021/12/18 12:10:11;;;;;;;33.97;11.05;;;3.80;99.90;;;;;;5051906;28;20024;-87
2021/12/18 12:12:52;;;;;;;39.13;12.55;;;3.80;99.90;;;;;;5051185;28;20032;-87
2021/12/18 12:15:19;;;;;;;34.55;11.68;;;3.80;99.90;;;;;;5015790;28;20098;-89
2021/12/18 12:18:03;;;;;;;39.58;12.77;;;3.80;99.90;;;;;;5052926;28;20059;-87
2021/12/18 12:20:42;;;;;;;28.92;11.10;;;3.80;99.90;;;;;;5035159;28;20120;-87
2021/12/18 12:23:10;;;;;;;26.63;9.55;;;3.80;99.90;;;;;;5068298;28;20024;-87
2021/12/18 12:25:35;;;;;;;28.27;10.38;;;3.80;99.90;;;;;;5052031;28;20112;-87
2021/12/18 12:28:05;;;;;;;30.10;9.60;;;3.80;99.90;;;;;;5051603;28;20634;-87
2021/12/18 12:30:44;;;;;;;23.20;8.20;;;3.80;99.90;;;;;;5049428;28;20037;-89
2021/12/18 12:33:19;;;;;;;33.85;12.93;;;3.80;99.90;;;;;;5048600;28;20292;-87
2021/12/18 12:36:29;;;;;;;27.23;9.85;;;3.80;99.90;;;;;;5031738;28;20033;-88
2021/12/18 12:38:58;;;;;;;30.03;11.00;;;3.80;99.90;;;;;;4960485;28;20034;-88
2021/12/18 12:41:27;;;;;;;20.33;9.00;;;3.70;99.90;;;;;;5005427;28;20033;-87
2021/12/18 12:43:55;;;;;;;22.90;8.25;;;3.70;99.90;;;;;;5069378;28;20032;-88
2021/12/18 12:46:21;;;;;;;22.88;8.38;;;3.70;99.90;;;;;;5019152;28;20117;-89
2021/12/18 12:49:07;;;;;;;22.50;8.52;;;3.70;99.90;;;;;;5036151;28;20067;-87
2021/12/18 12:52:03;;;;;;;20.08;8.05;;;3.70;99.90;;;;;;5055091;28;20025;-88
2021/12/18 12:54:45;;;;;;;21.38;8.25;;;3.70;99.90;;;;;;5052665;28;20063;-87
2021/12/18 12:57:23;;;;;;;23.27;8.05;;;3.70;99.90;;;;;;5048258;28;20028;-87
2021/12/18 13:00:16;;;;;;;20.20;7.63;;;3.70;99.90;;;;;;5042019;28;20108;-87
2021/12/18 13:02:57;;;;;;;24.02;8.32;;;3.60;99.90;;;;;;5058508;28;20140;-88
2021/12/18 13:05:26;;;;;;;20.73;8.18;;;3.60;99.90;;;;;;5037909;28;20037;-87
2021/12/18 13:07:59;;;;;;;25.50;9.68;;;3.60;99.90;;;;;;5038900;28;20389;-87
2021/12/18 13:10:28;;;;;;;31.48;10.15;;;3.70;99.90;;;;;;5054763;28;20024;-87
2021/12/18 13:12:57;;;;;;;26.65;9.23;;;3.60;99.90;;;;;;5019954;28;20061;-87
2021/12/18 13:15:24;;;;;;;22.73;9.02;;;3.60;99.90;;;;;;5060572;28;20106;-87
2021/12/18 13:18:09;;;;;;;29.55;11.07;;;3.60;99.90;;;;;;5054124;28;20063;-87
2021/12/18 13:20:48;;;;;;;28.95;10.18;;;3.60;99.90;;;;;;5054002;28;20029;-88
2021/12/18 13:23:18;;;;;;;33.08;10.45;;;3.60;99.90;;;;;;5036390;28;20040;-87
2021/12/18 13:25:52;;;;;;;28.30;10.30;;;3.50;99.90;;;;;;5035553;28;20029;-87
2021/12/18 13:28:19;;;;;;;29.88;11.18;;;3.50;99.90;;;;;;5032916;28;20033;-87
2021/12/18 13:30:47;;;;;;;26.67;10.93;;;3.50;99.90;;;;;;5054127;28;20039;-89
2021/12/18 13:33:14;;;;;;;26.60;11.00;;;3.50;99.90;;;;;;5037407;28;20029;-89